sensor_id;sensor_type;location;lat;lon;timestamp;temperature;humidity
84335;DHT22;74512;51.190;3.198;2024-01-10T00:01:23;1.50;1.00
84335;DHT22;74512;51.190;3.198;2024-01-10T00:03:53;1.20;1.00
84335;DHT22;74512;51.190;3.198;2024-01-10T00:06:18;1.20;1.00
84335;DHT22;74512;51.190;3.198;2024-01-10T00:08:44;1.10;1.00
84335;DHT22;74512;51.190;3.198;2024-01-10T00:11:10;0.40;1.00
84335;DHT22;74512;51.190;3.198;2024-01-10T00:13:35;0.40;1.00
84335;DHT22;74512;51.190;3.198;2024-01-10T00:16:01;0.40;1.00
84335;DHT22;74512;51.190;3.198;2024-01-10T00:18:27;0.70;1.00
84335;DHT22;74512;51.190;3.198;2024-01-10T00:20:52;0.60;1.00
84335;DHT22;74512;51.190;3.198;2024-01-10T00:23:21;0.90;1.00
84335;DHT22;74512;51.190;3.198;2024-01-10T00:25:47;0.60;1.00
84335;DHT22;74512;51.190;3.198;2024-01-10T00:28:13;0.90;1.00
84335;DHT22;74512;51.190;3.198;2024-01-10T00:30:39;1.20;1.00
84335;DHT22;74512;51.190;3.198;2024-01-10T00:33:05;0.80;1.00
84335;DHT22;74512;51.190;3.198;2024-01-10T00:35:31;1.00;1.00
84335;DHT22;74512;51.190;3.198;2024-01-10T00:37:57;1.40;1.00
84335;DHT22;74512;51.190;3.198;2024-01-10T00:40:23;1.00;1.00
84335;DHT22;74512;51.190;3.198;2024-01-10T00:42:49;1.00;1.00
84335;DHT22;74512;51.190;3.198;2024-01-10T00:45:16;1.50;1.00
84335;DHT22;74512;51.190;3.198;2024-01-10T00:47:41;1.30;1.00
84335;DHT22;74512;51.190;3.198;2024-01-10T00:50:08;1.30;1.00
84335;DHT22;74512;51.190;3.198;2024-01-10T00:52:33;1.30;1.00
84335;DHT22;74512;51.190;3.198;2024-01-10T00:54:59;1.30;1.00
84335;DHT22;74512;51.190;3.198;2024-01-10T00:57:24;0.50;1.00
84335;DHT22;74512;51.190;3.198;2024-01-10T00:59:50;0.90;1.00
84335;DHT22;74512;51.190;3.198;2024-01-10T01:02:16;0.90;1.00
84335;DHT22;74512;51.190;3.198;2024-01-10T01:04:42;1.00;1.00
84335;DHT22;74512;51.190;3.198;2024-01-10T01:07:08;0.80;1.00
84335;DHT22;74512;51.190;3.198;2024-01-10T01:26:04;0.50;1.00
84335;DHT22;74512;51.190;3.198;2024-01-10T01:28:30;0.10;1.00
84335;DHT22;74512;51.190;3.198;2024-01-10T01:30:56;0.00;1.00
84335;DHT22;74512;51.190;3.198;2024-01-10T01:33:21;0.00;1.00
84335;DHT22;74512;51.190;3.198;2024-01-10T01:35:47;0.60;1.00
84335;DHT22;74512;51.190;3.198;2024-01-10T01:38:12;1.30;1.00
84335;DHT22;74512;51.190;3.198;2024-01-10T01:40:38;1.30;1.00
84335;DHT22;74512;51.190;3.198;2024-01-10T01:43:24;1.30;1.00
84335;DHT22;74512;51.190;3.198;2024-01-10T01:45:52;0.70;1.00
84335;DHT22;74512;51.190;3.198;2024-01-10T01:48:20;0.40;1.00
84335;DHT22;74512;51.190;3.198;2024-01-10T01:50:47;0.80;1.00
84335;DHT22;74512;51.190;3.198;2024-01-10T01:53:14;0.70;1.00
84335;DHT22;74512;51.190;3.198;2024-01-10T01:55:42;0.70;1.00
84335;DHT22;74512;51.190;3.198;2024-01-10T01:58:08;0.80;1.00
84335;DHT22;74512;51.190;3.198;2024-01-10T02:00:34;0.90;1.00
84335;DHT22;74512;51.190;3.198;2024-01-10T02:02:59;1.20;1.00
84335;DHT22;74512;51.190;3.198;2024-01-10T02:05:26;1.30;1.00
84335;DHT22;74512;51.190;3.198;2024-01-10T02:07:51;1.40;1.00
84335;DHT22;74512;51.190;3.198;2024-01-10T02:10:19;1.50;1.00
84335;DHT22;74512;51.190;3.198;2024-01-10T02:12:45;1.70;1.00
84335;DHT22;74512;51.190;3.198;2024-01-10T02:15:11;1.60;1.00
84335;DHT22;74512;51.190;3.198;2024-01-10T02:17:37;0.80;1.00
84335;DHT22;74512;51.190;3.198;2024-01-10T02:20:16;1.10;1.00
84335;DHT22;74512;51.190;3.198;2024-01-10T02:22:46;1.10;1.00
84335;DHT22;74512;51.190;3.198;2024-01-10T02:25:13;1.10;1.00
84335;DHT22;74512;51.190;3.198;2024-01-10T02:27:40;1.40;1.00
84335;DHT22;74512;51.190;3.198;2024-01-10T02:30:07;1.30;1.00
84335;DHT22;74512;51.190;3.198;2024-01-10T02:32:34;1.20;1.00
84335;DHT22;74512;51.190;3.198;2024-01-10T02:35:00;0.80;1.00
84335;DHT22;74512;51.190;3.198;2024-01-10T02:37:26;1.30;1.00
84335;DHT22;74512;51.190;3.198;2024-01-10T02:39:51;1.80;1.00
84335;DHT22;74512;51.190;3.198;2024-01-10T02:42:17;1.70;1.00
84335;DHT22;74512;51.190;3.198;2024-01-10T02:44:43;1.50;1.00
84335;DHT22;74512;51.190;3.198;2024-01-10T02:47:11;1.50;1.00
84335;DHT22;74512;51.190;3.198;2024-01-10T02:49:37;1.00;1.00
84335;DHT22;74512;51.190;3.198;2024-01-10T02:52:02;0.80;1.00
84335;DHT22;74512;51.190;3.198;2024-01-10T02:54:28;0.70;1.00
84335;DHT22;74512;51.190;3.198;2024-01-10T02:56:54;0.80;1.00
84335;DHT22;74512;51.190;3.198;2024-01-10T02:59:19;0.40;1.00
84335;DHT22;74512;51.190;3.198;2024-01-10T03:01:45;0.40;1.00
84335;DHT22;74512;51.190;3.198;2024-01-10T03:04:10;0.50;1.00
84335;DHT22;74512;51.190;3.198;2024-01-10T03:06:36;0.90;1.00
84335;DHT22;74512;51.190;3.198;2024-01-10T03:09:02;1.40;1.00
84335;DHT22;74512;51.190;3.198;2024-01-10T03:11:28;1.70;1.00
84335;DHT22;74512;51.190;3.198;2024-01-10T03:14:23;1.80;1.00
84335;DHT22;74512;51.190;3.198;2024-01-10T03:16:49;1.70;1.00
84335;DHT22;74512;51.190;3.198;2024-01-10T03:19:15;1.50;1.00
84335;DHT22;74512;51.190;3.198;2024-01-10T03:21:40;1.40;1.00
84335;DHT22;74512;51.190;3.198;2024-01-10T03:24:06;1.30;1.00
84335;DHT22;74512;51.190;3.198;2024-01-10T03:26:32;1.00;1.00
84335;DHT22;74512;51.190;3.198;2024-01-10T03:28:58;1.30;1.00
84335;DHT22;74512;51.190;3.198;2024-01-10T03:31:24;1.20;1.00
84335;DHT22;74512;51.190;3.198;2024-01-10T03:33:50;1.40;1.00
84335;DHT22;74512;51.190;3.198;2024-01-10T03:36:16;1.30;1.00
84335;DHT22;74512;51.190;3.198;2024-01-10T03:38:43;1.40;1.00
84335;DHT22;74512;51.190;3.198;2024-01-10T03:41:15;1.40;1.00
84335;DHT22;74512;51.190;3.198;2024-01-10T03:43:42;1.00;1.00
84335;DHT22;74512;51.190;3.198;2024-01-10T03:46:08;1.20;1.00
84335;DHT22;74512;51.190;3.198;2024-01-10T03:48:34;1.30;1.00
84335;DHT22;74512;51.190;3.198;2024-01-10T03:50:59;1.30;1.00
84335;DHT22;74512;51.190;3.198;2024-01-10T03:53:25;1.00;1.00
84335;DHT22;74512;51.190;3.198;2024-01-10T03:55:51;0.80;1.00
84335;DHT22;74512;51.190;3.198;2024-01-10T03:58:16;0.60;1.00
84335;DHT22;74512;51.190;3.198;2024-01-10T04:00:42;0.20;1.00
84335;DHT22;74512;51.190;3.198;2024-01-10T04:03:08;0.30;1.00
84335;DHT22;74512;51.190;3.198;2024-01-10T04:05:33;0.10;1.00
84335;DHT22;74512;51.190;3.198;2024-01-10T04:07:59;0.30;1.00
84335;DHT22;74512;51.190;3.198;2024-01-10T04:10:25;0.60;1.00
84335;DHT22;74512;51.190;3.198;2024-01-10T04:12:50;0.20;1.00
84335;DHT22;74512;51.190;3.198;2024-01-10T04:15:16;0.50;1.00
84335;DHT22;74512;51.190;3.198;2024-01-10T04:17:43;0.80;1.00
84335;DHT22;74512;51.190;3.198;2024-01-10T04:20:09;0.60;1.00
84335;DHT22;74512;51.190;3.198;2024-01-10T04:22:35;0.30;1.00
84335;DHT22;74512;51.190;3.198;2024-01-10T04:25:04;0.30;1.00
84335;DHT22;74512;51.190;3.198;2024-01-10T04:27:30;0.50;1.00
84335;DHT22;74512;51.190;3.198;2024-01-10T04:29:56;0.80;1.00
84335;DHT22;74512;51.190;3.198;2024-01-10T04:32:22;0.50;1.00
84335;DHT22;74512;51.190;3.198;2024-01-10T04:34:47;0.80;1.00
84335;DHT22;74512;51.190;3.198;2024-01-10T04:37:13;0.60;1.00
84335;DHT22;74512;51.190;3.198;2024-01-10T04:39:39;0.60;1.00
84335;DHT22;74512;51.190;3.198;2024-01-10T04:42:06;0.50;1.00
84335;DHT22;74512;51.190;3.198;2024-01-10T04:44:32;0.70;1.00
84335;DHT22;74512;51.190;3.198;2024-01-10T04:46:57;0.80;1.00
84335;DHT22;74512;51.190;3.198;2024-01-10T04:49:23;0.90;1.00
84335;DHT22;74512;51.190;3.198;2024-01-10T04:51:50;1.10;1.00
84335;DHT22;74512;51.190;3.198;2024-01-10T04:54:15;1.00;1.00
84335;DHT22;74512;51.190;3.198;2024-01-10T04:56:41;1.10;1.00
84335;DHT22;74512;51.190;3.198;2024-01-10T04:59:07;1.80;1.00
84335;DHT22;74512;51.190;3.198;2024-01-10T05:01:33;1.50;1.00
84335;DHT22;74512;51.190;3.198;2024-01-10T05:03:59;1.40;1.00
84335;DHT22;74512;51.190;3.198;2024-01-10T05:06:24;1.70;1.00
84335;DHT22;74512;51.190;3.198;2024-01-10T05:08:50;1.80;1.00
84335;DHT22;74512;51.190;3.198;2024-01-10T05:11:16;1.50;1.00
84335;DHT22;74512;51.190;3.198;2024-01-10T05:13:44;1.90;1.00
84335;DHT22;74512;51.190;3.198;2024-01-10T05:16:09;1.70;1.00
84335;DHT22;74512;51.190;3.198;2024-01-10T05:18:35;1.60;1.00
84335;DHT22;74512;51.190;3.198;2024-01-10T05:21:01;1.60;1.00
84335;DHT22;74512;51.190;3.198;2024-01-10T05:23:27;0.90;1.00
84335;DHT22;74512;51.190;3.198;2024-01-10T05:25:53;0.50;1.00
84335;DHT22;74512;51.190;3.198;2024-01-10T05:28:19;0.60;1.00
84335;DHT22;74512;51.190;3.198;2024-01-10T05:30:45;0.70;1.00
84335;DHT22;74512;51.190;3.198;2024-01-10T05:33:11;0.80;1.00
84335;DHT22;74512;51.190;3.198;2024-01-10T05:35:38;0.90;1.00
84335;DHT22;74512;51.190;3.198;2024-01-10T05:38:04;0.20;1.00
84335;DHT22;74512;51.190;3.198;2024-01-10T05:40:30;0.30;1.00
84335;DHT22;74512;51.190;3.198;2024-01-10T05:42:57;0.60;1.00
84335;DHT22;74512;51.190;3.198;2024-01-10T05:45:25;0.50;1.00
84335;DHT22;74512;51.190;3.198;2024-01-10T05:47:50;0.40;1.00
84335;DHT22;74512;51.190;3.198;2024-01-10T05:50:16;0.10;1.00
84335;DHT22;74512;51.190;3.198;2024-01-10T05:52:42;-0.10;1.00
84335;DHT22;74512;51.190;3.198;2024-01-10T05:55:09;0.30;1.00
84335;DHT22;74512;51.190;3.198;2024-01-10T05:57:36;0.60;1.00
84335;DHT22;74512;51.190;3.198;2024-01-10T06:00:01;-0.10;1.00
84335;DHT22;74512;51.190;3.198;2024-01-10T06:02:28;0.00;1.00
84335;DHT22;74512;51.190;3.198;2024-01-10T06:04:54;0.10;1.00
84335;DHT22;74512;51.190;3.198;2024-01-10T06:07:19;0.20;1.00
84335;DHT22;74512;51.190;3.198;2024-01-10T06:09:46;0.20;1.00
84335;DHT22;74512;51.190;3.198;2024-01-10T06:12:13;0.20;1.00
84335;DHT22;74512;51.190;3.198;2024-01-10T06:14:38;-0.10;1.00
84335;DHT22;74512;51.190;3.198;2024-01-10T06:17:04;0.20;1.00
84335;DHT22;74512;51.190;3.198;2024-01-10T06:19:30;0.00;1.00
84335;DHT22;74512;51.190;3.198;2024-01-10T06:21:59;-0.30;1.00
84335;DHT22;74512;51.190;3.198;2024-01-10T06:24:25;0.40;1.00
84335;DHT22;74512;51.190;3.198;2024-01-10T06:26:51;0.80;1.00
84335;DHT22;74512;51.190;3.198;2024-01-10T06:29:18;0.80;1.00
84335;DHT22;74512;51.190;3.198;2024-01-10T06:31:44;0.60;1.00
84335;DHT22;74512;51.190;3.198;2024-01-10T06:34:10;0.40;1.00
84335;DHT22;74512;51.190;3.198;2024-01-10T06:36:35;0.60;1.00
84335;DHT22;74512;51.190;3.198;2024-01-10T06:39:02;1.00;1.00
84335;DHT22;74512;51.190;3.198;2024-01-10T06:41:28;0.40;1.00
84335;DHT22;74512;51.190;3.198;2024-01-10T06:43:54;0.60;1.00
84335;DHT22;74512;51.190;3.198;2024-01-10T06:46:20;0.40;1.00
84335;DHT22;74512;51.190;3.198;2024-01-10T06:48:47;1.00;1.00
84335;DHT22;74512;51.190;3.198;2024-01-10T06:51:13;0.70;1.00
84335;DHT22;74512;51.190;3.198;2024-01-10T06:53:40;0.70;1.00
84335;DHT22;74512;51.190;3.198;2024-01-10T06:56:06;1.20;1.00
84335;DHT22;74512;51.190;3.198;2024-01-10T06:58:32;1.60;1.00
84335;DHT22;74512;51.190;3.198;2024-01-10T07:00:58;1.30;1.00
84335;DHT22;74512;51.190;3.198;2024-01-10T07:03:26;0.90;1.00
84335;DHT22;74512;51.190;3.198;2024-01-10T07:05:52;0.60;1.00
84335;DHT22;74512;51.190;3.198;2024-01-10T07:08:18;0.60;1.00
84335;DHT22;74512;51.190;3.198;2024-01-10T07:10:43;0.80;1.00
84335;DHT22;74512;51.190;3.198;2024-01-10T07:13:10;0.50;1.00
84335;DHT22;74512;51.190;3.198;2024-01-10T07:15:36;0.50;1.00
84335;DHT22;74512;51.190;3.198;2024-01-10T07:18:02;1.00;1.00
84335;DHT22;74512;51.190;3.198;2024-01-10T07:20:28;1.10;1.00
84335;DHT22;74512;51.190;3.198;2024-01-10T07:22:54;0.60;1.00
84335;DHT22;74512;51.190;3.198;2024-01-10T07:25:20;0.40;1.00
84335;DHT22;74512;51.190;3.198;2024-01-10T07:27:47;0.20;1.00
84335;DHT22;74512;51.190;3.198;2024-01-10T07:30:13;0.20;1.00
84335;DHT22;74512;51.190;3.198;2024-01-10T07:32:43;0.40;1.00
84335;DHT22;74512;51.190;3.198;2024-01-10T07:35:09;0.40;1.00
84335;DHT22;74512;51.190;3.198;2024-01-10T07:37:39;0.30;1.00
84335;DHT22;74512;51.190;3.198;2024-01-10T07:40:06;0.10;1.00
84335;DHT22;74512;51.190;3.198;2024-01-10T07:42:35;0.20;1.00
84335;DHT22;74512;51.190;3.198;2024-01-10T07:45:01;0.30;1.00
84335;DHT22;74512;51.190;3.198;2024-01-10T07:47:33;0.30;1.00
84335;DHT22;74512;51.190;3.198;2024-01-10T07:50:00;0.30;1.00
84335;DHT22;74512;51.190;3.198;2024-01-10T07:52:26;0.40;1.00
84335;DHT22;74512;51.190;3.198;2024-01-10T07:54:51;0.80;1.00
84335;DHT22;74512;51.190;3.198;2024-01-10T07:57:17;0.90;1.00
84335;DHT22;74512;51.190;3.198;2024-01-10T07:59:45;1.10;1.00
84335;DHT22;74512;51.190;3.198;2024-01-10T08:02:10;1.30;1.00
84335;DHT22;74512;51.190;3.198;2024-01-10T08:04:37;1.00;1.00
84335;DHT22;74512;51.190;3.198;2024-01-10T08:07:03;1.50;1.00
84335;DHT22;74512;51.190;3.198;2024-01-10T08:09:29;1.60;1.00
84335;DHT22;74512;51.190;3.198;2024-01-10T08:11:54;1.30;1.00
84335;DHT22;74512;51.190;3.198;2024-01-10T08:14:20;1.30;1.00
84335;DHT22;74512;51.190;3.198;2024-01-10T08:16:46;1.10;1.00
84335;DHT22;74512;51.190;3.198;2024-01-10T08:19:11;0.90;1.00
84335;DHT22;74512;51.190;3.198;2024-01-10T08:21:37;1.10;1.00
84335;DHT22;74512;51.190;3.198;2024-01-10T08:24:03;1.10;1.00
84335;DHT22;74512;51.190;3.198;2024-01-10T08:26:30;1.00;1.00
84335;DHT22;74512;51.190;3.198;2024-01-10T08:28:55;0.80;1.00
84335;DHT22;74512;51.190;3.198;2024-01-10T08:31:21;0.60;1.00
84335;DHT22;74512;51.190;3.198;2024-01-10T08:33:48;0.90;1.00
84335;DHT22;74512;51.190;3.198;2024-01-10T08:36:14;1.10;1.00
84335;DHT22;74512;51.190;3.198;2024-01-10T08:38:41;0.80;1.00
84335;DHT22;74512;51.190;3.198;2024-01-10T08:41:10;0.90;1.00
84335;DHT22;74512;51.190;3.198;2024-01-10T08:43:37;1.20;1.00
84335;DHT22;74512;51.190;3.198;2024-01-10T08:46:03;1.20;1.00
84335;DHT22;74512;51.190;3.198;2024-01-10T08:48:29;1.20;1.00
84335;DHT22;74512;51.190;3.198;2024-01-10T08:50:54;1.30;1.00
84335;DHT22;74512;51.190;3.198;2024-01-10T08:53:22;1.00;1.00
84335;DHT22;74512;51.190;3.198;2024-01-10T08:55:47;1.20;1.00
84335;DHT22;74512;51.190;3.198;2024-01-10T08:58:13;1.10;1.00
84335;DHT22;74512;51.190;3.198;2024-01-10T09:00:39;1.30;1.00
84335;DHT22;74512;51.190;3.198;2024-01-10T09:03:05;0.90;1.00
84335;DHT22;74512;51.190;3.198;2024-01-10T09:05:30;1.20;1.00
84335;DHT22;74512;51.190;3.198;2024-01-10T09:07:56;1.70;1.00
84335;DHT22;74512;51.190;3.198;2024-01-10T09:10:22;1.80;1.00
84335;DHT22;74512;51.190;3.198;2024-01-10T09:12:48;1.80;1.00
84335;DHT22;74512;51.190;3.198;2024-01-10T09:15:14;1.80;1.00
84335;DHT22;74512;51.190;3.198;2024-01-10T09:17:44;2.20;1.00
84335;DHT22;74512;51.190;3.198;2024-01-10T09:20:11;1.70;1.00
84335;DHT22;74512;51.190;3.198;2024-01-10T09:22:38;1.60;1.00
84335;DHT22;74512;51.190;3.198;2024-01-10T09:25:05;1.50;1.00
84335;DHT22;74512;51.190;3.198;2024-01-10T09:27:33;1.20;1.00
84335;DHT22;74512;51.190;3.198;2024-01-10T09:30:00;1.80;1.00
84335;DHT22;74512;51.190;3.198;2024-01-10T09:32:29;2.10;1.00
84335;DHT22;74512;51.190;3.198;2024-01-10T09:34:55;2.00;1.00
84335;DHT22;74512;51.190;3.198;2024-01-10T09:37:21;1.80;1.00
84335;DHT22;74512;51.190;3.198;2024-01-10T09:39:48;1.80;1.00
84335;DHT22;74512;51.190;3.198;2024-01-10T09:42:14;1.50;1.00
84335;DHT22;74512;51.190;3.198;2024-01-10T09:44:41;0.50;1.00
84335;DHT22;74512;51.190;3.198;2024-01-10T09:47:07;1.00;1.00
84335;DHT22;74512;51.190;3.198;2024-01-10T09:49:33;0.80;1.00
84335;DHT22;74512;51.190;3.198;2024-01-10T09:51:59;0.60;1.00
84335;DHT22;74512;51.190;3.198;2024-01-10T09:54:30;0.60;1.00
84335;DHT22;74512;51.190;3.198;2024-01-10T09:56:57;0.50;1.00
84335;DHT22;74512;51.190;3.198;2024-01-10T09:59:23;0.50;1.00
84335;DHT22;74512;51.190;3.198;2024-01-10T10:01:53;0.10;1.00
84335;DHT22;74512;51.190;3.198;2024-01-10T10:04:20;1.00;1.00
84335;DHT22;74512;51.190;3.198;2024-01-10T10:06:46;0.70;1.00
84335;DHT22;74512;51.190;3.198;2024-01-10T10:09:12;0.50;1.00
84335;DHT22;74512;51.190;3.198;2024-01-10T10:11:40;0.10;1.00
84335;DHT22;74512;51.190;3.198;2024-01-10T10:14:18;0.30;1.00
84335;DHT22;74512;51.190;3.198;2024-01-10T10:16:44;0.20;1.00
84335;DHT22;74512;51.190;3.198;2024-01-10T10:19:10;0.70;1.00
84335;DHT22;74512;51.190;3.198;2024-01-10T10:21:38;1.00;1.00
84335;DHT22;74512;51.190;3.198;2024-01-10T10:24:05;1.30;1.00
84335;DHT22;74512;51.190;3.198;2024-01-10T10:26:33;1.10;1.00
84335;DHT22;74512;51.190;3.198;2024-01-10T10:28:59;0.90;1.00
84335;DHT22;74512;51.190;3.198;2024-01-10T10:31:25;0.80;1.00
84335;DHT22;74512;51.190;3.198;2024-01-10T10:33:51;1.10;1.00
84335;DHT22;74512;51.190;3.198;2024-01-10T10:36:18;1.20;1.00
84335;DHT22;74512;51.190;3.198;2024-01-10T10:38:44;1.10;1.00
84335;DHT22;74512;51.190;3.198;2024-01-10T10:41:09;1.40;1.00
84335;DHT22;74512;51.190;3.198;2024-01-10T10:43:38;0.80;1.00
84335;DHT22;74512;51.190;3.198;2024-01-10T10:46:05;0.80;1.00
84335;DHT22;74512;51.190;3.198;2024-01-10T10:48:35;1.70;1.00
84335;DHT22;74512;51.190;3.198;2024-01-10T10:51:04;1.60;1.00
84335;DHT22;74512;51.190;3.198;2024-01-10T10:53:39;1.50;1.00
84335;DHT22;74512;51.190;3.198;2024-01-10T10:56:09;1.10;1.00
84335;DHT22;74512;51.190;3.198;2024-01-10T10:58:41;0.80;1.00
84335;DHT22;74512;51.190;3.198;2024-01-10T11:01:08;0.90;1.00
84335;DHT22;74512;51.190;3.198;2024-01-10T11:03:38;1.60;1.00
84335;DHT22;74512;51.190;3.198;2024-01-10T11:06:06;2.10;1.00
84335;DHT22;74512;51.190;3.198;2024-01-10T11:08:50;1.40;1.00
84335;DHT22;74512;51.190;3.198;2024-01-10T11:25:31;1.20;1.00
84335;DHT22;74512;51.190;3.198;2024-01-10T11:28:02;1.10;1.00
84335;DHT22;74512;51.190;3.198;2024-01-10T11:30:35;1.20;1.00
84335;DHT22;74512;51.190;3.198;2024-01-10T11:33:08;1.10;1.00
84335;DHT22;74512;51.190;3.198;2024-01-10T11:36:20;1.70;1.00
84335;DHT22;74512;51.190;3.198;2024-01-10T11:41:28;1.50;1.00
84335;DHT22;74512;51.190;3.198;2024-01-10T11:46:43;2.00;1.00
84335;DHT22;74512;51.190;3.198;2024-01-10T11:49:09;2.10;1.00
84335;DHT22;74512;51.190;3.198;2024-01-10T11:51:35;2.20;1.00
84335;DHT22;74512;51.190;3.198;2024-01-10T11:54:02;2.50;1.00
84335;DHT22;74512;51.190;3.198;2024-01-10T11:56:41;2.60;1.00
84335;DHT22;74512;51.190;3.198;2024-01-10T11:59:09;2.90;1.00
84335;DHT22;74512;51.190;3.198;2024-01-10T12:01:39;2.90;1.00
84335;DHT22;74512;51.190;3.198;2024-01-10T12:04:06;2.70;1.00
84335;DHT22;74512;51.190;3.198;2024-01-10T12:06:34;1.70;1.00
84335;DHT22;74512;51.190;3.198;2024-01-10T12:09:00;2.10;1.00
84335;DHT22;74512;51.190;3.198;2024-01-10T12:11:41;1.90;1.00
84335;DHT22;74512;51.190;3.198;2024-01-10T12:14:09;1.50;1.00
84335;DHT22;74512;51.190;3.198;2024-01-10T12:16:35;2.00;1.00
84335;DHT22;74512;51.190;3.198;2024-01-10T12:19:01;1.10;1.00
84335;DHT22;74512;51.190;3.198;2024-01-10T12:21:27;1.40;1.00
84335;DHT22;74512;51.190;3.198;2024-01-10T12:23:52;1.40;1.00
84335;DHT22;74512;51.190;3.198;2024-01-10T12:26:19;1.70;1.00
84335;DHT22;74512;51.190;3.198;2024-01-10T12:28:59;1.60;1.00
84335;DHT22;74512;51.190;3.198;2024-01-10T12:31:27;1.70;1.00
84335;DHT22;74512;51.190;3.198;2024-01-10T12:33:57;1.60;1.00
84335;DHT22;74512;51.190;3.198;2024-01-10T12:36:23;1.60;1.00
84335;DHT22;74512;51.190;3.198;2024-01-10T12:38:49;1.80;1.00
84335;DHT22;74512;51.190;3.198;2024-01-10T12:41:17;2.10;1.00
84335;DHT22;74512;51.190;3.198;2024-01-10T12:43:43;1.70;1.00
84335;DHT22;74512;51.190;3.198;2024-01-10T12:46:10;1.60;1.00
84335;DHT22;74512;51.190;3.198;2024-01-10T12:48:38;1.50;1.00
84335;DHT22;74512;51.190;3.198;2024-01-10T12:51:13;1.50;1.00
84335;DHT22;74512;51.190;3.198;2024-01-10T12:53:40;1.40;1.00
84335;DHT22;74512;51.190;3.198;2024-01-10T12:56:07;1.80;1.00
84335;DHT22;74512;51.190;3.198;2024-01-10T12:58:33;1.80;1.00
84335;DHT22;74512;51.190;3.198;2024-01-10T13:01:00;1.90;1.00
84335;DHT22;74512;51.190;3.198;2024-01-10T13:03:26;2.10;1.00
84335;DHT22;74512;51.190;3.198;2024-01-10T13:05:51;2.20;1.00
84335;DHT22;74512;51.190;3.198;2024-01-10T13:08:20;2.50;1.00
84335;DHT22;74512;51.190;3.198;2024-01-10T13:10:47;2.70;1.00
84335;DHT22;74512;51.190;3.198;2024-01-10T13:13:15;2.90;1.00
84335;DHT22;74512;51.190;3.198;2024-01-10T13:15:43;2.80;1.00
84335;DHT22;74512;51.190;3.198;2024-01-10T13:18:09;3.00;1.00
84335;DHT22;74512;51.190;3.198;2024-01-10T13:20:35;3.00;1.00
84335;DHT22;74512;51.190;3.198;2024-01-10T13:23:01;2.80;1.00
84335;DHT22;74512;51.190;3.198;2024-01-10T13:25:27;2.80;1.00
84335;DHT22;74512;51.190;3.198;2024-01-10T13:27:53;2.60;1.00
84335;DHT22;74512;51.190;3.198;2024-01-10T13:30:19;2.80;1.00
84335;DHT22;74512;51.190;3.198;2024-01-10T13:32:45;2.50;1.00
84335;DHT22;74512;51.190;3.198;2024-01-10T13:35:15;2.60;1.00
84335;DHT22;74512;51.190;3.198;2024-01-10T13:37:45;2.80;1.00
84335;DHT22;74512;51.190;3.198;2024-01-10T13:40:12;2.80;1.00
84335;DHT22;74512;51.190;3.198;2024-01-10T13:42:40;2.90;1.00
84335;DHT22;74512;51.190;3.198;2024-01-10T13:45:07;2.80;1.00
84335;DHT22;74512;51.190;3.198;2024-01-10T13:47:33;2.50;1.00
84335;DHT22;74512;51.190;3.198;2024-01-10T13:50:02;2.30;1.00
84335;DHT22;74512;51.190;3.198;2024-01-10T13:52:29;2.50;1.00
84335;DHT22;74512;51.190;3.198;2024-01-10T13:54:55;2.40;1.00
84335;DHT22;74512;51.190;3.198;2024-01-10T13:57:21;2.80;1.00
84335;DHT22;74512;51.190;3.198;2024-01-10T13:59:47;2.80;1.00
84335;DHT22;74512;51.190;3.198;2024-01-10T14:02:13;2.70;1.00
84335;DHT22;74512;51.190;3.198;2024-01-10T14:04:39;2.30;1.00
84335;DHT22;74512;51.190;3.198;2024-01-10T14:07:05;2.10;1.00
84335;DHT22;74512;51.190;3.198;2024-01-10T14:09:31;1.90;1.00
84335;DHT22;74512;51.190;3.198;2024-01-10T14:11:57;1.90;1.00
84335;DHT22;74512;51.190;3.198;2024-01-10T14:14:23;1.70;1.00
84335;DHT22;74512;51.190;3.198;2024-01-10T14:16:49;1.90;1.00
84335;DHT22;74512;51.190;3.198;2024-01-10T14:19:15;2.30;1.00
84335;DHT22;74512;51.190;3.198;2024-01-10T14:21:43;2.10;1.00
84335;DHT22;74512;51.190;3.198;2024-01-10T14:24:09;2.60;1.00
84335;DHT22;74512;51.190;3.198;2024-01-10T14:26:34;2.30;1.00
84335;DHT22;74512;51.190;3.198;2024-01-10T14:29:01;2.60;1.00
84335;DHT22;74512;51.190;3.198;2024-01-10T14:31:26;2.40;1.00
84335;DHT22;74512;51.190;3.198;2024-01-10T14:33:52;2.50;1.00
84335;DHT22;74512;51.190;3.198;2024-01-10T14:36:18;2.60;1.00
84335;DHT22;74512;51.190;3.198;2024-01-10T14:38:44;2.50;1.00
84335;DHT22;74512;51.190;3.198;2024-01-10T14:41:10;2.90;1.00
84335;DHT22;74512;51.190;3.198;2024-01-10T14:43:36;2.90;1.00
84335;DHT22;74512;51.190;3.198;2024-01-10T14:46:03;2.60;1.00
84335;DHT22;74512;51.190;3.198;2024-01-10T14:48:31;2.40;1.00
84335;DHT22;74512;51.190;3.198;2024-01-10T14:50:56;2.50;1.00
84335;DHT22;74512;51.190;3.198;2024-01-10T14:53:22;2.70;1.00
84335;DHT22;74512;51.190;3.198;2024-01-10T14:55:48;2.60;1.00
84335;DHT22;74512;51.190;3.198;2024-01-10T14:58:13;2.80;1.00
84335;DHT22;74512;51.190;3.198;2024-01-10T15:00:40;2.40;1.00
84335;DHT22;74512;51.190;3.198;2024-01-10T15:03:08;2.20;1.00
84335;DHT22;74512;51.190;3.198;2024-01-10T15:05:34;2.20;1.00
84335;DHT22;74512;51.190;3.198;2024-01-10T15:08:00;2.50;1.00
84335;DHT22;74512;51.190;3.198;2024-01-10T15:10:27;2.60;1.00
84335;DHT22;74512;51.190;3.198;2024-01-10T15:12:53;2.70;1.00
84335;DHT22;74512;51.190;3.198;2024-01-10T15:15:18;2.80;1.00
84335;DHT22;74512;51.190;3.198;2024-01-10T15:17:44;2.60;1.00
84335;DHT22;74512;51.190;3.198;2024-01-10T15:20:10;3.00;1.00
84335;DHT22;74512;51.190;3.198;2024-01-10T15:22:36;3.20;1.00
84335;DHT22;74512;51.190;3.198;2024-01-10T15:25:05;2.90;1.00
84335;DHT22;74512;51.190;3.198;2024-01-10T15:27:31;2.50;1.00
84335;DHT22;74512;51.190;3.198;2024-01-10T15:29:57;2.80;1.00
84335;DHT22;74512;51.190;3.198;2024-01-10T15:32:23;3.00;1.00
84335;DHT22;74512;51.190;3.198;2024-01-10T15:34:49;2.90;1.00
84335;DHT22;74512;51.190;3.198;2024-01-10T15:37:15;3.30;1.00
84335;DHT22;74512;51.190;3.198;2024-01-10T15:39:41;3.20;1.00
84335;DHT22;74512;51.190;3.198;2024-01-10T15:42:06;3.10;1.00
84335;DHT22;74512;51.190;3.198;2024-01-10T15:44:32;3.20;1.00
84335;DHT22;74512;51.190;3.198;2024-01-10T15:46:58;3.30;1.00
84335;DHT22;74512;51.190;3.198;2024-01-10T15:49:24;3.00;1.00
84335;DHT22;74512;51.190;3.198;2024-01-10T15:51:50;2.70;1.00
84335;DHT22;74512;51.190;3.198;2024-01-10T15:54:16;2.50;1.00
84335;DHT22;74512;51.190;3.198;2024-01-10T15:56:41;2.60;1.00
84335;DHT22;74512;51.190;3.198;2024-01-10T15:59:08;2.90;1.00
84335;DHT22;74512;51.190;3.198;2024-01-10T16:01:34;3.00;1.00
84335;DHT22;74512;51.190;3.198;2024-01-10T16:04:00;3.20;1.00
84335;DHT22;74512;51.190;3.198;2024-01-10T16:06:27;3.30;1.00
84335;DHT22;74512;51.190;3.198;2024-01-10T16:08:53;3.50;1.00
84335;DHT22;74512;51.190;3.198;2024-01-10T16:11:19;3.40;1.00
84335;DHT22;74512;51.190;3.198;2024-01-10T16:13:44;3.30;1.00
84335;DHT22;74512;51.190;3.198;2024-01-10T16:16:10;3.20;1.00
84335;DHT22;74512;51.190;3.198;2024-01-10T16:18:36;3.50;1.00
84335;DHT22;74512;51.190;3.198;2024-01-10T16:21:06;3.40;1.00
84335;DHT22;74512;51.190;3.198;2024-01-10T16:23:32;3.30;1.00
84335;DHT22;74512;51.190;3.198;2024-01-10T16:25:58;2.90;1.00
84335;DHT22;74512;51.190;3.198;2024-01-10T16:28:24;2.80;1.00
84335;DHT22;74512;51.190;3.198;2024-01-10T16:30:49;2.60;1.00
84335;DHT22;74512;51.190;3.198;2024-01-10T16:33:15;2.40;1.00
84335;DHT22;74512;51.190;3.198;2024-01-10T16:35:41;2.10;1.00